sensor_id;sensor_type;location;lat;lon;timestamp;pressure;altitude;pressure_sealevel;temperature;humidity
29247;BME280;16272;48.188;9.964;2023-04-06T00:01:12;96006.13;;;-1.14;71.26
29247;BME280;16272;48.188;9.964;2023-04-06T00:03:38;95997.84;;;-1.05;70.22
29247;BME280;16272;48.188;9.964;2023-04-06T00:06:03;96002.88;;;-1.02;70.38
29247;BME280;16272;48.188;9.964;2023-04-06T00:08:29;95999.75;;;-0.91;70.33
29247;BME280;16272;48.188;9.964;2023-04-06T00:10:54;95992.41;;;-0.83;70.45
29247;BME280;16272;48.188;9.964;2023-04-06T00:13:20;95998.28;;;-0.44;68.92
29247;BME280;16272;48.188;9.964;2023-04-06T00:15:46;96001.44;;;-0.22;68.58
29247;BME280;16272;48.188;9.964;2023-04-06T00:18:12;95992.72;;;-0.05;68.09
29247;BME280;16272;48.188;9.964;2023-04-06T00:20:37;95989.41;;;-0.08;67.21
29247;BME280;16272;48.188;9.964;2023-04-06T00:23:02;95995.16;;;-0.02;67.56
29247;BME280;16272;48.188;9.964;2023-04-06T00:25:28;95991.50;;;-0.31;67.33
29247;BME280;16272;48.188;9.964;2023-04-06T00:27:53;95995.50;;;-0.08;67.10
29247;BME280;16272;48.188;9.964;2023-04-06T00:30:18;95992.97;;;-0.09;67.21
29247;BME280;16272;48.188;9.964;2023-04-06T00:32:46;95993.28;;;-0.15;66.48
29247;BME280;16272;48.188;9.964;2023-04-06T00:35:11;95988.38;;;-0.22;66.79
29247;BME280;16272;48.188;9.964;2023-04-06T00:37:37;95991.09;;;-0.07;66.04
29247;BME280;16272;48.188;9.964;2023-04-06T00:40:02;95992.78;;;-0.06;65.52
29247;BME280;16272;48.188;9.964;2023-04-06T00:42:28;95986.56;;;0.12;65.14
29247;BME280;16272;48.188;9.964;2023-04-06T00:44:59;95992.97;;;0.23;64.77
29247;BME280;16272;48.188;9.964;2023-04-06T00:47:25;95993.97;;;0.04;66.75
29247;BME280;16272;48.188;9.964;2023-04-06T00:49:53;95984.44;;;-0.13;68.07
29247;BME280;16272;48.188;9.964;2023-04-06T00:52:19;95986.34;;;-0.16;67.45
29247;BME280;16272;48.188;9.964;2023-04-06T00:54:44;95985.41;;;0.02;66.22
29247;BME280;16272;48.188;9.964;2023-04-06T00:57:11;95977.47;;;0.20;64.11
29247;BME280;16272;48.188;9.964;2023-04-06T00:59:38;95989.34;;;0.09;66.15
29247;BME280;16272;48.188;9.964;2023-04-06T01:02:03;95991.50;;;-0.15;67.44
29247;BME280;16272;48.188;9.964;2023-04-06T01:04:29;95989.66;;;-0.13;67.12
29247;BME280;16272;48.188;9.964;2023-04-06T01:06:54;95980.97;;;-0.13;67.08
29247;BME280;16272;48.188;9.964;2023-04-06T01:09:28;95976.09;;;-0.20;66.27
29247;BME280;16272;48.188;9.964;2023-04-06T01:11:55;95977.28;;;-0.09;66.16
29247;BME280;16272;48.188;9.964;2023-04-06T01:14:21;95970.00;;;-0.36;67.09
29247;BME280;16272;48.188;9.964;2023-04-06T01:16:47;95973.31;;;-0.50;68.16
29247;BME280;16272;48.188;9.964;2023-04-06T01:19:14;95977.56;;;-0.47;68.25
29247;BME280;16272;48.188;9.964;2023-04-06T01:21:41;95973.91;;;-0.61;68.16
29247;BME280;16272;48.188;9.964;2023-04-06T01:24:07;95961.94;;;-0.82;69.05
29247;BME280;16272;48.188;9.964;2023-04-06T01:26:33;95962.22;;;-0.71;68.96
29247;BME280;16272;48.188;9.964;2023-04-06T01:28:59;95961.38;;;-0.54;68.40
29247;BME280;16272;48.188;9.964;2023-04-06T01:31:25;95956.66;;;-0.81;68.68
29247;BME280;16272;48.188;9.964;2023-04-06T01:33:51;95962.72;;;-1.15;69.17
29247;BME280;16272;48.188;9.964;2023-04-06T01:36:16;95957.81;;;-1.04;68.87
29247;BME280;16272;48.188;9.964;2023-04-06T01:38:42;95950.94;;;-1.05;68.75
29247;BME280;16272;48.188;9.964;2023-04-06T01:41:08;95945.06;;;-1.10;68.57
29247;BME280;16272;48.188;9.964;2023-04-06T01:43:33;95946.63;;;-1.06;68.63
29247;BME280;16272;48.188;9.964;2023-04-06T01:46:00;95945.59;;;-0.86;68.06
29247;BME280;16272;48.188;9.964;2023-04-06T01:48:26;95952.03;;;-0.76;66.31
29247;BME280;16272;48.188;9.964;2023-04-06T01:50:52;95952.09;;;-0.60;66.12
29247;BME280;16272;48.188;9.964;2023-04-06T01:53:17;95948.19;;;-0.68;65.67
29247;BME280;16272;48.188;9.964;2023-04-06T01:55:42;95945.31;;;-0.80;65.86
29247;BME280;16272;48.188;9.964;2023-04-06T01:58:13;95946.13;;;-0.62;66.03
29247;BME280;16272;48.188;9.964;2023-04-06T02:00:39;95938.75;;;-0.71;67.08
29247;BME280;16272;48.188;9.964;2023-04-06T02:03:05;95941.16;;;-0.84;66.37
29247;BME280;16272;48.188;9.964;2023-04-06T02:05:32;95942.47;;;-1.10;66.43
29247;BME280;16272;48.188;9.964;2023-04-06T02:08:03;95942.66;;;-1.13;66.07
29247;BME280;16272;48.188;9.964;2023-04-06T02:10:28;95939.50;;;-1.37;66.58
29247;BME280;16272;48.188;9.964;2023-04-06T02:12:54;95943.50;;;-1.67;69.07
29247;BME280;16272;48.188;9.964;2023-04-06T02:15:20;95935.19;;;-1.56;68.90
29247;BME280;16272;48.188;9.964;2023-04-06T02:17:46;95943.22;;;-1.60;68.62
29247;BME280;16272;48.188;9.964;2023-04-06T02:20:11;95938.69;;;-1.57;68.31
29247;BME280;16272;48.188;9.964;2023-04-06T02:22:37;95938.09;;;-1.62;69.58
29247;BME280;16272;48.188;9.964;2023-04-06T02:25:02;95933.53;;;-1.76;69.33
29247;BME280;16272;48.188;9.964;2023-04-06T02:27:28;95934.53;;;-1.78;70.06
29247;BME280;16272;48.188;9.964;2023-04-06T02:29:53;95928.22;;;-2.11;70.70
29247;BME280;16272;48.188;9.964;2023-04-06T02:32:19;95937.25;;;-2.18;70.35
29247;BME280;16272;48.188;9.964;2023-04-06T02:34:45;95931.09;;;-2.17;70.00
29247;BME280;16272;48.188;9.964;2023-04-06T02:37:10;95935.78;;;-2.43;71.11
29247;BME280;16272;48.188;9.964;2023-04-06T02:39:35;95931.88;;;-2.15;70.65
29247;BME280;16272;48.188;9.964;2023-04-06T02:42:01;95931.25;;;-1.82;69.85
29247;BME280;16272;48.188;9.964;2023-04-06T02:44:26;95928.88;;;-2.25;71.35
29247;BME280;16272;48.188;9.964;2023-04-06T02:46:51;95927.22;;;-2.65;73.44
29247;BME280;16272;48.188;9.964;2023-04-06T02:49:17;95931.94;;;-2.73;74.28
29247;BME280;16272;48.188;9.964;2023-04-06T02:51:42;95938.38;;;-2.43;72.80
29247;BME280;16272;48.188;9.964;2023-04-06T02:54:07;95928.81;;;-2.42;71.94
29247;BME280;16272;48.188;9.964;2023-04-06T02:56:33;95939.97;;;-2.40;72.05
29247;BME280;16272;48.188;9.964;2023-04-06T02:58:58;95936.31;;;-2.17;71.96
29247;BME280;16272;48.188;9.964;2023-04-06T03:01:27;95939.19;;;-1.85;70.86
29247;BME280;16272;48.188;9.964;2023-04-06T03:03:53;95926.19;;;-1.68;68.13
29247;BME280;16272;48.188;9.964;2023-04-06T03:06:18;95936.16;;;-1.58;69.24
29247;BME280;16272;48.188;9.964;2023-04-06T03:08:43;95933.09;;;-1.67;68.74
29247;BME280;16272;48.188;9.964;2023-04-06T03:11:08;95933.31;;;-1.71;69.70
29247;BME280;16272;48.188;9.964;2023-04-06T03:13:36;95936.25;;;-1.96;70.60
29247;BME280;16272;48.188;9.964;2023-04-06T03:16:04;95931.47;;;-2.06;71.45
29247;BME280;16272;48.188;9.964;2023-04-06T03:18:30;95930.19;;;-2.54;72.12
29247;BME280;16272;48.188;9.964;2023-04-06T03:20:55;95928.22;;;-2.11;70.47
29247;BME280;16272;48.188;9.964;2023-04-06T03:23:20;95930.41;;;-2.01;69.99
29247;BME280;16272;48.188;9.964;2023-04-06T03:25:46;95924.72;;;-2.10;70.17
29247;BME280;16272;48.188;9.964;2023-04-06T03:28:11;95924.56;;;-2.07;69.97
29247;BME280;16272;48.188;9.964;2023-04-06T03:30:37;95923.44;;;-2.01;69.24
29247;BME280;16272;48.188;9.964;2023-04-06T03:33:02;95939.75;;;-1.97;70.08
29247;BME280;16272;48.188;9.964;2023-04-06T03:35:30;95936.47;;;-1.64;69.28
29247;BME280;16272;48.188;9.964;2023-04-06T03:37:56;95938.59;;;-1.73;68.84
29247;BME280;16272;48.188;9.964;2023-04-06T03:40:21;95940.25;;;-1.89;67.83
29247;BME280;16272;48.188;9.964;2023-04-06T03:42:46;95941.03;;;-2.25;69.46
29247;BME280;16272;48.188;9.964;2023-04-06T03:45:11;95930.91;;;-2.12;69.85
29247;BME280;16272;48.188;9.964;2023-04-06T03:47:38;95932.78;;;-2.35;69.65
29247;BME280;16272;48.188;9.964;2023-04-06T03:50:04;95942.69;;;-2.43;71.29
29247;BME280;16272;48.188;9.964;2023-04-06T03:52:30;95944.34;;;-2.03;69.23
29247;BME280;16272;48.188;9.964;2023-04-06T03:54:55;95941.03;;;-2.06;69.98
29247;BME280;16272;48.188;9.964;2023-04-06T03:57:20;95940.31;;;-1.91;69.44
29247;BME280;16272;48.188;9.964;2023-04-06T03:59:46;95945.38;;;-2.07;69.80
29247;BME280;16272;48.188;9.964;2023-04-06T04:02:11;95946.38;;;-1.90;70.09
29247;BME280;16272;48.188;9.964;2023-04-06T04:04:36;95941.78;;;-1.85;68.88
29247;BME280;16272;48.188;9.964;2023-04-06T04:07:02;95941.25;;;-1.92;69.25
29247;BME280;16272;48.188;9.964;2023-04-06T04:09:28;95949.88;;;-1.91;69.21
29247;BME280;16272;48.188;9.964;2023-04-06T04:11:53;95948.19;;;-1.92;69.60
29247;BME280;16272;48.188;9.964;2023-04-06T04:14:18;95950.44;;;-2.04;69.85
29247;BME280;16272;48.188;9.964;2023-04-06T04:16:47;95951.25;;;-2.01;69.71
29247;BME280;16272;48.188;9.964;2023-04-06T04:19:12;95952.75;;;-1.97;69.17
29247;BME280;16272;48.188;9.964;2023-04-06T04:21:45;95947.22;;;-2.09;69.08
29247;BME280;16272;48.188;9.964;2023-04-06T04:24:11;95954.38;;;-2.14;69.79
29247;BME280;16272;48.188;9.964;2023-04-06T04:26:37;95952.13;;;-2.03;68.98
29247;BME280;16272;48.188;9.964;2023-04-06T04:29:05;95957.63;;;-1.90;69.75
29247;BME280;16272;48.188;9.964;2023-04-06T04:31:31;95963.28;;;-2.18;69.56
29247;BME280;16272;48.188;9.964;2023-04-06T04:33:57;95957.34;;;-2.22;70.57
29247;BME280;16272;48.188;9.964;2023-04-06T04:36:22;95952.56;;;-2.12;69.63
29247;BME280;16272;48.188;9.964;2023-04-06T04:38:49;95964.44;;;-2.25;70.14
29247;BME280;16272;48.188;9.964;2023-04-06T04:41:14;95957.50;;;-2.25;70.32
29247;BME280;16272;48.188;9.964;2023-04-06T04:43:40;95962.59;;;-2.23;69.54
29247;BME280;16272;48.188;9.964;2023-04-06T04:46:05;95957.41;;;-2.23;69.88
29247;BME280;16272;48.188;9.964;2023-04-06T04:48:35;95962.41;;;-2.18;70.91
29247;BME280;16272;48.188;9.964;2023-04-06T04:51:00;95962.28;;;-2.34;69.74
29247;BME280;16272;48.188;9.964;2023-04-06T04:53:26;95969.97;;;-2.52;70.33
29247;BME280;16272;48.188;9.964;2023-04-06T04:55:51;95970.59;;;-2.86;72.06
29247;BME280;16272;48.188;9.964;2023-04-06T04:58:16;95974.81;;;-2.63;71.27
29247;BME280;16272;48.188;9.964;2023-04-06T05:00:43;95973.28;;;-2.48;70.94
29247;BME280;16272;48.188;9.964;2023-04-06T05:03:14;95981.00;;;-2.26;69.55
29247;BME280;16272;48.188;9.964;2023-04-06T05:05:43;95977.31;;;-2.22;69.97
29247;BME280;16272;48.188;9.964;2023-04-06T05:08:08;95973.22;;;-2.09;70.20
29247;BME280;16272;48.188;9.964;2023-04-06T05:10:34;95975.22;;;-1.95;69.41
29247;BME280;16272;48.188;9.964;2023-04-06T05:13:00;95976.69;;;-1.89;69.24
29247;BME280;16272;48.188;9.964;2023-04-06T05:15:25;95983.44;;;-1.85;69.62
29247;BME280;16272;48.188;9.964;2023-04-06T05:17:51;95979.22;;;-1.51;69.24
29247;BME280;16272;48.188;9.964;2023-04-06T05:20:16;95978.81;;;-1.61;69.38
29247;BME280;16272;48.188;9.964;2023-04-06T05:22:42;95979.41;;;-1.92;70.72
29247;BME280;16272;48.188;9.964;2023-04-06T05:25:07;95978.66;;;-2.13;71.94
29247;BME280;16272;48.188;9.964;2023-04-06T05:27:33;95983.63;;;-1.71;70.47
29247;BME280;16272;48.188;9.964;2023-04-06T05:29:58;95980.72;;;-1.64;70.33
29247;BME280;16272;48.188;9.964;2023-04-06T05:32:23;95981.75;;;-1.50;71.12
29247;BME280;16272;48.188;9.964;2023-04-06T05:34:57;95987.38;;;-1.40;70.93
29247;BME280;16272;48.188;9.964;2023-04-06T05:37:23;95982.13;;;-1.21;69.67
29247;BME280;16272;48.188;9.964;2023-04-06T05:39:48;95990.16;;;-1.25;70.62
29247;BME280;16272;48.188;9.964;2023-04-06T05:42:13;95990.31;;;-1.28;71.48
29247;BME280;16272;48.188;9.964;2023-04-06T05:44:39;95992.31;;;-1.53;72.54
29247;BME280;16272;48.188;9.964;2023-04-06T05:47:04;95984.91;;;-1.60;72.50
29247;BME280;16272;48.188;9.964;2023-04-06T05:49:29;95991.72;;;-1.21;71.84
29247;BME280;16272;48.188;9.964;2023-04-06T05:51:55;95993.00;;;-1.67;73.08
29247;BME280;16272;48.188;9.964;2023-04-06T05:54:20;95998.56;;;-1.93;74.29
29247;BME280;16272;48.188;9.964;2023-04-06T05:56:45;96004.56;;;-1.36;72.29
29247;BME280;16272;48.188;9.964;2023-04-06T05:59:11;96003.34;;;-1.65;74.09
29247;BME280;16272;48.188;9.964;2023-04-06T06:01:36;96002.72;;;-1.34;72.43
29247;BME280;16272;48.188;9.964;2023-04-06T06:04:02;96002.91;;;-0.84;72.00
29247;BME280;16272;48.188;9.964;2023-04-06T06:06:28;96001.38;;;-1.06;72.34
29247;BME280;16272;48.188;9.964;2023-04-06T06:08:55;96010.47;;;-1.32;72.16
29247;BME280;16272;48.188;9.964;2023-04-06T06:11:23;96004.28;;;-1.12;73.28
29247;BME280;16272;48.188;9.964;2023-04-06T06:13:48;96006.59;;;-1.06;72.18
29247;BME280;16272;48.188;9.964;2023-04-06T06:16:26;96004.91;;;-0.72;71.95
29247;BME280;16272;48.188;9.964;2023-04-06T06:18:52;96002.69;;;-0.80;72.58
29247;BME280;16272;48.188;9.964;2023-04-06T06:21:18;96013.63;;;-0.56;72.12
29247;BME280;16272;48.188;9.964;2023-04-06T06:23:44;96008.72;;;-0.62;71.39
29247;BME280;16272;48.188;9.964;2023-04-06T06:26:09;96008.06;;;-0.32;70.36
29247;BME280;16272;48.188;9.964;2023-04-06T06:28:35;96005.00;;;-0.40;71.12
29247;BME280;16272;48.188;9.964;2023-04-06T06:31:01;96009.94;;;-0.51;71.68
29247;BME280;16272;48.188;9.964;2023-04-06T06:33:26;96007.31;;;0.15;70.60
29247;BME280;16272;48.188;9.964;2023-04-06T06:35:52;96008.72;;;-0.44;72.47
29247;BME280;16272;48.188;9.964;2023-04-06T06:38:18;96011.69;;;0.15;71.13
29247;BME280;16272;48.188;9.964;2023-04-06T06:40:45;96005.28;;;0.52;70.96
29247;BME280;16272;48.188;9.964;2023-04-06T06:43:11;96008.38;;;0.11;71.99
29247;BME280;16272;48.188;9.964;2023-04-06T06:45:36;96008.63;;;0.70;70.02
29247;BME280;16272;48.188;9.964;2023-04-06T06:48:15;96008.91;;;0.66;70.51
29247;BME280;16272;48.188;9.964;2023-04-06T06:50:41;96013.00;;;1.02;69.78
29247;BME280;16272;48.188;9.964;2023-04-06T06:53:06;96015.38;;;0.90;69.49
29247;BME280;16272;48.188;9.964;2023-04-06T06:55:32;96009.44;;;1.47;68.23
29247;BME280;16272;48.188;9.964;2023-04-06T06:57:57;96009.00;;;1.70;66.97
29247;BME280;16272;48.188;9.964;2023-04-06T07:00:22;96011.16;;;2.20;66.67
29247;BME280;16272;48.188;9.964;2023-04-06T07:02:48;96009.03;;;1.98;66.62
29247;BME280;16272;48.188;9.964;2023-04-06T07:05:13;96012.38;;;2.29;66.08
29247;BME280;16272;48.188;9.964;2023-04-06T07:07:42;96005.84;;;1.93;66.48
29247;BME280;16272;48.188;9.964;2023-04-06T07:10:09;96004.22;;;2.19;67.47
29247;BME280;16272;48.188;9.964;2023-04-06T07:12:35;96008.97;;;2.56;66.93
29247;BME280;16272;48.188;9.964;2023-04-06T07:15:00;96005.38;;;2.57;66.14
29247;BME280;16272;48.188;9.964;2023-04-06T07:17:26;96009.22;;;2.93;65.12
29247;BME280;16272;48.188;9.964;2023-04-06T07:19:51;96007.59;;;2.78;64.74
29247;BME280;16272;48.188;9.964;2023-04-06T07:22:16;96006.16;;;3.39;66.01
29247;BME280;16272;48.188;9.964;2023-04-06T07:24:47;96009.63;;;3.27;63.32
29247;BME280;16272;48.188;9.964;2023-04-06T07:27:12;96006.94;;;3.67;62.90
29247;BME280;16272;48.188;9.964;2023-04-06T07:29:37;96004.84;;;3.46;62.31
29247;BME280;16272;48.188;9.964;2023-04-06T07:32:03;96004.31;;;3.93;62.04
29247;BME280;16272;48.188;9.964;2023-04-06T07:34:33;96000.19;;;4.27;61.70
29247;BME280;16272;48.188;9.964;2023-04-06T07:36:58;95996.09;;;4.60;60.38
29247;BME280;16272;48.188;9.964;2023-04-06T07:39:25;95995.53;;;4.31;60.04
29247;BME280;16272;48.188;9.964;2023-04-06T07:41:52;96006.22;;;4.53;58.17
29247;BME280;16272;48.188;9.964;2023-04-06T07:44:17;96004.63;;;4.27;59.48
29247;BME280;16272;48.188;9.964;2023-04-06T07:46:42;95996.84;;;4.86;57.23
29247;BME280;16272;48.188;9.964;2023-04-06T07:49:08;96003.00;;;5.22;57.95
29247;BME280;16272;48.188;9.964;2023-04-06T07:51:36;95995.75;;;5.84;56.95
29247;BME280;16272;48.188;9.964;2023-04-06T07:54:02;95999.03;;;5.52;54.18
29247;BME280;16272;48.188;9.964;2023-04-06T07:56:27;95998.03;;;5.77;55.08
29247;BME280;16272;48.188;9.964;2023-04-06T07:59:00;95996.03;;;6.15;51.44
29247;BME280;16272;48.188;9.964;2023-04-06T08:01:27;95987.16;;;6.16;50.32
29247;BME280;16272;48.188;9.964;2023-04-06T08:03:52;95984.75;;;6.47;51.19
29247;BME280;16272;48.188;9.964;2023-04-06T08:06:25;95990.13;;;6.79;50.17
29247;BME280;16272;48.188;9.964;2023-04-06T08:08:51;95984.97;;;6.66;49.27
29247;BME280;16272;48.188;9.964;2023-04-06T08:11:16;95992.13;;;6.75;51.16
29247;BME280;16272;48.188;9.964;2023-04-06T08:13:44;95982.66;;;7.16;48.09
29247;BME280;16272;48.188;9.964;2023-04-06T08:16:10;95991.34;;;7.82;48.96
29247;BME280;16272;48.188;9.964;2023-04-06T08:18:35;95977.03;;;8.96;48.72
29247;BME280;16272;48.188;9.964;2023-04-06T08:21:01;95981.41;;;9.46;45.51
29247;BME280;16272;48.188;9.964;2023-04-06T08:23:26;95978.84;;;8.86;46.83
29247;BME280;16272;48.188;9.964;2023-04-06T08:25:51;95976.34;;;9.04;46.07
29247;BME280;16272;48.188;9.964;2023-04-06T08:28:19;95975.09;;;9.28;44.13
29247;BME280;16272;48.188;9.964;2023-04-06T08:30:48;95978.25;;;9.90;45.71
29247;BME280;16272;48.188;9.964;2023-04-06T08:33:14;95977.28;;;9.91;41.99
29247;BME280;16272;48.188;9.964;2023-04-06T08:35:39;95971.25;;;10.08;44.27
29247;BME280;16272;48.188;9.964;2023-04-06T08:38:05;95984.19;;;10.21;41.39
29247;BME280;16272;48.188;9.964;2023-04-06T08:40:38;95975.34;;;10.40;42.02
29247;BME280;16272;48.188;9.964;2023-04-06T08:43:06;95979.13;;;10.28;44.92
29247;BME280;16272;48.188;9.964;2023-04-06T08:45:36;95973.38;;;10.42;41.38
29247;BME280;16272;48.188;9.964;2023-04-06T08:48:02;95969.91;;;11.33;42.91
29247;BME280;16272;48.188;9.964;2023-04-06T08:50:29;95968.72;;;11.00;38.05
29247;BME280;16272;48.188;9.964;2023-04-06T08:52:55;95968.97;;;11.25;39.52
29247;BME280;16272;48.188;9.964;2023-04-06T08:55:22;95975.53;;;11.48;38.49
29247;BME280;16272;48.188;9.964;2023-04-06T08:57:48;95971.69;;;11.69;38.18
29247;BME280;16272;48.188;9.964;2023-04-06T09:00:15;95976.03;;;11.70;40.65
29247;BME280;16272;48.188;9.964;2023-04-06T09:02:43;95960.25;;;11.14;33.89
29247;BME280;16272;48.188;9.964;2023-04-06T09:05:09;95961.50;;;12.35;38.23
29247;BME280;16272;48.188;9.964;2023-04-06T09:07:37;95955.75;;;12.21;35.76
29247;BME280;16272;48.188;9.964;2023-04-06T09:10:04;95947.91;;;12.46;34.33
29247;BME280;16272;48.188;9.964;2023-04-06T09:12:30;95955.97;;;11.39;34.28
29247;BME280;16272;48.188;9.964;2023-04-06T09:14:57;95951.00;;;11.36;34.17
29247;BME280;16272;48.188;9.964;2023-04-06T09:17:30;95954.84;;;11.06;35.16
29247;BME280;16272;48.188;9.964;2023-04-06T09:19:59;95953.84;;;11.61;33.62
29247;BME280;16272;48.188;9.964;2023-04-06T09:22:25;95948.38;;;12.07;33.66
29247;BME280;16272;48.188;9.964;2023-04-06T09:24:53;95950.88;;;11.64;32.70
29247;BME280;16272;48.188;9.964;2023-04-06T09:27:32;95953.47;;;12.26;33.33
29247;BME280;16272;48.188;9.964;2023-04-06T09:30:09;95953.53;;;12.43;31.25
29247;BME280;16272;48.188;9.964;2023-04-06T09:32:48;95947.94;;;11.93;31.22
29247;BME280;16272;48.188;9.964;2023-04-06T09:35:14;95950.97;;;12.25;34.05
29247;BME280;16272;48.188;9.964;2023-04-06T09:37:40;95949.78;;;12.54;32.45
29247;BME280;16272;48.188;9.964;2023-04-06T09:40:08;95936.75;;;13.01;31.93
29247;BME280;16272;48.188;9.964;2023-04-06T09:42:34;95939.88;;;12.38;30.67
29247;BME280;16272;48.188;9.964;2023-04-06T09:45:03;95934.50;;;13.39;31.67
29247;BME280;16272;48.188;9.964;2023-04-06T09:47:35;95945.28;;;12.62;32.50
29247;BME280;16272;48.188;9.964;2023-04-06T09:50:02;95938.13;;;12.20;32.10
29247;BME280;16272;48.188;9.964;2023-04-06T09:52:41;95938.97;;;11.94;34.73
29247;BME280;16272;48.188;9.964;2023-04-06T09:55:08;95927.66;;;13.78;30.41
29247;BME280;16272;48.188;9.964;2023-04-06T09:57:58;95931.59;;;13.08;32.59
29247;BME280;16272;48.188;9.964;2023-04-06T10:00:29;95934.09;;;12.16;30.92
29247;BME280;16272;48.188;9.964;2023-04-06T10:03:03;95919.50;;;13.63;30.75
29247;BME280;16272;48.188;9.964;2023-04-06T10:05:52;95915.13;;;13.21;30.53
29247;BME280;16272;48.188;9.964;2023-04-06T10:08:28;95913.31;;;13.38;30.99
29247;BME280;16272;48.188;9.964;2023-04-06T10:10:54;95914.84;;;13.32;29.31
29247;BME280;16272;48.188;9.964;2023-04-06T10:13:23;95919.69;;;13.45;30.87
29247;BME280;16272;48.188;9.964;2023-04-06T10:15:50;95914.59;;;13.01;29.16
29247;BME280;16272;48.188;9.964;2023-04-06T10:18:17;95913.06;;;12.90;29.03
29247;BME280;16272;48.188;9.964;2023-04-06T10:21:00;95913.66;;;12.51;30.85
29247;BME280;16272;48.188;9.964;2023-04-06T10:23:33;95914.63;;;13.09;31.55
29247;BME280;16272;48.188;9.964;2023-04-06T10:26:01;95913.81;;;13.83;29.11
29247;BME280;16272;48.188;9.964;2023-04-06T10:28:32;95915.06;;;12.03;30.47
29247;BME280;16272;48.188;9.964;2023-04-06T10:31:00;95914.47;;;13.27;33.80
29247;BME280;16272;48.188;9.964;2023-04-06T10:33:27;95904.00;;;14.31;31.07
29247;BME280;16272;48.188;9.964;2023-04-06T10:35:53;95907.66;;;13.49;29.22
29247;BME280;16272;48.188;9.964;2023-04-06T10:38:19;95910.06;;;14.16;29.96
29247;BME280;16272;48.188;9.964;2023-04-06T10:40:52;95904.25;;;14.61;28.84
29247;BME280;16272;48.188;9.964;2023-04-06T10:43:21;95905.66;;;14.40;29.70
29247;BME280;16272;48.188;9.964;2023-04-06T10:45:59;95902.25;;;14.15;33.71
29247;BME280;16272;48.188;9.964;2023-04-06T10:48:36;95905.94;;;14.53;34.17
29247;BME280;16272;48.188;9.964;2023-04-06T10:51:07;95897.50;;;15.51;33.12
29247;BME280;16272;48.188;9.964;2023-04-06T10:53:34;95898.50;;;13.44;35.30
29247;BME280;16272;48.188;9.964;2023-04-06T10:55:59;95904.00;;;13.67;34.50
29247;BME280;16272;48.188;9.964;2023-04-06T10:58:27;95895.78;;;14.41;33.89
29247;BME280;16272;48.188;9.964;2023-04-06T11:00:53;95887.81;;;14.72;30.65
29247;BME280;16272;48.188;9.964;2023-04-06T11:03:19;95887.50;;;14.98;31.31
29247;BME280;16272;48.188;9.964;2023-04-06T11:05:49;95891.34;;;14.25;28.23
29247;BME280;16272;48.188;9.964;2023-04-06T11:11:15;95888.59;;;14.49;31.15
29247;BME280;16272;48.188;9.964;2023-04-06T11:13:53;95890.56;;;14.08;32.55
29247;BME280;16272;48.188;9.964;2023-04-06T11:16:53;95890.13;;;13.79;31.92
29247;BME280;16272;48.188;9.964;2023-04-06T11:19:11;95889.16;;;14.76;29.69
29247;BME280;16272;48.188;9.964;2023-04-06T11:21:47;95882.50;;;14.95;31.77
29247;BME280;16272;48.188;9.964;2023-04-06T11:24:23;95874.56;;;15.56;29.72
29247;BME280;16272;48.188;9.964;2023-04-06T11:26:51;95872.22;;;15.15;27.80
29247;BME280;16272;48.188;9.964;2023-04-06T11:29:24;95873.84;;;15.16;29.84
29247;BME280;16272;48.188;9.964;2023-04-06T11:31:53;95878.03;;;14.96;31.52
29247;BME280;16272;48.188;9.964;2023-04-06T11:34:20;95868.72;;;15.30;30.66
29247;BME280;16272;48.188;9.964;2023-04-06T11:36:48;95871.88;;;14.47;31.55
29247;BME280;16272;48.188;9.964;2023-04-06T11:39:21;95869.81;;;15.20;29.76
29247;BME280;16272;48.188;9.964;2023-04-06T11:42:04;95870.69;;;15.74;27.46
29247;BME280;16272;48.188;9.964;2023-04-06T11:44:43;95869.13;;;15.65;27.72
29247;BME280;16272;48.188;9.964;2023-04-06T11:47:12;95860.56;;;15.69;29.90
29247;BME280;16272;48.188;9.964;2023-04-06T11:49:42;95863.97;;;14.94;32.62
29247;BME280;16272;48.188;9.964;2023-04-06T11:54:44;95854.84;;;15.11;29.96
29247;BME280;16272;48.188;9.964;2023-04-06T11:57:10;95847.38;;;16.27;26.84
29247;BME280;16272;48.188;9.964;2023-04-06T11:59:35;95840.53;;;16.54;28.43
29247;BME280;16272;48.188;9.964;2023-04-06T12:02:02;95839.91;;;16.08;27.84
29247;BME280;16272;48.188;9.964;2023-04-06T12:04:28;95845.91;;;16.10;27.97
29247;BME280;16272;48.188;9.964;2023-04-06T12:06:53;95845.53;;;14.36;27.73
29247;BME280;16272;48.188;9.964;2023-04-06T12:09:19;95842.97;;;14.51;27.41
29247;BME280;16272;48.188;9.964;2023-04-06T12:11:49;95841.31;;;14.50;28.36
29247;BME280;16272;48.188;9.964;2023-04-06T12:14:15;95845.84;;;14.81;30.19
29247;BME280;16272;48.188;9.964;2023-04-06T12:16:42;95846.41;;;14.37;28.63
29247;BME280;16272;48.188;9.964;2023-04-06T12:19:16;95842.34;;;15.65;30.46
29247;BME280;16272;48.188;9.964;2023-04-06T12:21:43;95840.31;;;15.67;29.35
29247;BME280;16272;48.188;9.964;2023-04-06T12:24:08;95836.91;;;15.73;33.44
29247;BME280;16272;48.188;9.964;2023-04-06T12:26:35;95846.25;;;15.39;32.47
29247;BME280;16272;48.188;9.964;2023-04-06T12:29:02;95827.56;;;14.93;30.54
29247;BME280;16272;48.188;9.964;2023-04-06T12:31:36;95840.97;;;13.49;30.76
29247;BME280;16272;48.188;9.964;2023-04-06T12:34:01;95835.28;;;14.16;33.09
29247;BME280;16272;48.188;9.964;2023-04-06T12:36:28;95833.56;;;15.94;31.51
29247;BME280;16272;48.188;9.964;2023-04-06T12:38:57;95838.56;;;15.74;30.65
29247;BME280;16272;48.188;9.964;2023-04-06T12:41:22;95828.91;;;14.88;31.65
29247;BME280;16272;48.188;9.964;2023-04-06T12:43:51;95831.28;;;15.30;28.81
29247;BME280;16272;48.188;9.964;2023-04-06T12:46:17;95829.16;;;15.02;31.29
29247;BME280;16272;48.188;9.964;2023-04-06T12:48:44;95827.25;;;14.56;31.92
29247;BME280;16272;48.188;9.964;2023-04-06T12:51:09;95823.50;;;14.97;33.13
29247;BME280;16272;48.188;9.964;2023-04-06T12:53:35;95822.28;;;14.84;29.68
29247;BME280;16272;48.188;9.964;2023-04-06T12:56:01;95820.78;;;13.63;28.94
29247;BME280;16272;48.188;9.964;2023-04-06T12:58:27;95820.16;;;14.40;31.72
29247;BME280;16272;48.188;9.964;2023-04-06T13:00:54;95817.44;;;14.48;31.09
29247;BME280;16272;48.188;9.964;2023-04-06T13:03:23;95812.38;;;14.62;31.47
29247;BME280;16272;48.188;9.964;2023-04-06T13:05:51;95815.72;;;14.87;31.22
29247;BME280;16272;48.188;9.964;2023-04-06T13:08:18;95814.63;;;13.63;31.50